Time;durP1;ratioP1;P1;durP2;ratioP2;P2;SDS_P1;SDS_P2;PMS_P1;PMS_P2;Temp;Humidity;BMP_temperature;BMP_pressure;BME280_temperature;BME280_humidity;BME280_pressure;Samples;Min_cycle;Max_cycle;Signal;HPM_P1;HPM_P2
2022/07/01 00:02:06;;;;;;;16.27;8.67;;;23.20;99.90;;;;;;5015697;28;20222;-73
2022/07/01 00:04:33;;;;;;;12.95;8.65;;;23.20;99.90;;;;;;5015222;28;20313;-70
2022/07/01 00:07:00;;;;;;;14.18;8.80;;;23.20;99.90;;;;;;5015165;28;20196;-68
2022/07/01 00:09:27;;;;;;;15.10;9.07;;;23.20;99.90;;;;;;5015381;28;20253;-69
2022/07/01 00:11:54;;;;;;;12.65;8.93;;;23.30;99.90;;;;;;5015244;28;20692;-67
2022/07/01 00:14:22;;;;;;;14.30;9.67;;;23.20;99.90;;;;;;5015433;28;20208;-67
2022/07/01 00:16:50;;;;;;;16.17;9.27;;;23.30;99.90;;;;;;5015331;28;20662;-66
2022/07/01 00:19:17;;;;;;;15.13;10.50;;;23.40;99.90;;;;;;5015354;28;20200;-68
2022/07/01 00:21:45;;;;;;;13.77;9.40;;;23.30;99.90;;;;;;5015033;28;20649;-67
2022/07/01 00:24:12;;;;;;;17.40;10.27;;;23.30;99.90;;;;;;5015541;28;20262;-68
2022/07/01 00:26:39;;;;;;;15.73;10.48;;;23.40;99.90;;;;;;5015543;28;20257;-66
2022/07/01 00:29:06;;;;;;;16.25;11.07;;;23.40;99.90;;;;;;5032902;28;20198;-66
2022/07/01 00:31:33;;;;;;;16.80;11.00;;;23.40;99.90;;;;;;5015257;28;20207;-66
2022/07/01 00:34:00;;;;;;;19.95;11.40;;;23.30;99.90;;;;;;5014709;28;20584;-66
2022/07/01 00:36:27;;;;;;;21.33;12.13;;;23.30;99.90;;;;;;5015244;28;20223;-66
2022/07/01 00:38:58;;;;;;;22.25;12.55;;;23.30;99.90;;;;;;5033152;28;20211;-66
2022/07/01 00:41:25;;;;;;;21.17;12.80;;;23.30;99.90;;;;;;5015313;28;20242;-67
2022/07/01 00:43:53;;;;;;;17.60;12.32;;;23.40;99.90;;;;;;5015054;28;20245;-65
2022/07/01 00:46:23;;;;;;;20.77;11.95;;;23.40;99.90;;;;;;5015148;28;20265;-66
2022/07/01 00:48:52;;;;;;;16.95;12.07;;;23.40;99.90;;;;;;5014962;28;20202;-68
2022/07/01 00:51:19;;;;;;;14.60;12.20;;;23.40;99.90;;;;;;5032980;28;20281;-68
2022/07/01 00:53:47;;;;;;;18.42;12.13;;;23.40;99.90;;;;;;5015305;28;20192;-67
2022/07/01 00:56:14;;;;;;;16.95;11.63;;;23.40;99.90;;;;;;5014843;28;20199;-68
2022/07/01 00:58:41;;;;;;;16.25;12.20;;;23.30;99.90;;;;;;5015006;28;20203;-65
2022/07/01 01:01:10;;;;;;;20.05;12.80;;;23.30;99.90;;;;;;5015005;28;20266;-66
2022/07/01 01:03:37;;;;;;;19.20;12.18;;;23.30;99.90;;;;;;5015163;28;20195;-66
2022/07/01 01:06:04;;;;;;;15.30;11.20;;;23.30;99.90;;;;;;5014985;28;20223;-66
2022/07/01 01:08:31;;;;;;;20.20;12.02;;;23.20;99.90;;;;;;5015009;28;20282;-66
2022/07/01 01:10:58;;;;;;;22.77;13.18;;;23.20;99.90;;;;;;5014885;28;20249;-66
2022/07/01 01:13:26;;;;;;;17.67;11.32;;;23.20;99.90;;;;;;5032620;28;20192;-66
2022/07/01 01:15:53;;;;;;;17.00;12.10;;;23.10;99.90;;;;;;5014679;28;20298;-68
2022/07/01 01:18:20;;;;;;;19.20;11.77;;;23.10;99.90;;;;;;5014616;28;20234;-66
2022/07/01 01:20:47;;;;;;;18.40;11.88;;;23.10;99.90;;;;;;5015052;28;20206;-67
2022/07/01 01:23:14;;;;;;;16.70;11.60;;;23.10;99.90;;;;;;5014827;28;20295;-66
2022/07/01 01:25:41;;;;;;;20.48;11.60;;;23.10;99.90;;;;;;5015037;28;20227;-65
2022/07/01 01:28:08;;;;;;;17.13;11.68;;;23.00;99.90;;;;;;5014693;28;20238;-66
2022/07/01 01:30:35;;;;;;;15.25;11.65;;;23.00;99.90;;;;;;5014486;28;20209;-66
2022/07/01 01:33:02;;;;;;;24.40;11.70;;;23.00;99.90;;;;;;5032421;28;20196;-66
2022/07/01 01:35:31;;;;;;;18.13;11.57;;;22.90;99.90;;;;;;5014916;28;20200;-66
2022/07/01 01:37:58;;;;;;;16.73;12.10;;;22.90;99.90;;;;;;5014601;28;20705;-66
2022/07/01 01:40:25;;;;;;;17.00;11.55;;;22.80;99.90;;;;;;5014367;28;20196;-65
2022/07/01 01:42:52;;;;;;;16.80;12.43;;;22.80;99.90;;;;;;5032159;28;20588;-65
2022/07/01 01:45:19;;;;;;;16.65;11.88;;;22.60;99.90;;;;;;5015190;28;20261;-65
2022/07/01 01:47:46;;;;;;;17.90;12.35;;;22.50;99.90;;;;;;5018276;28;20191;-65
2022/07/01 01:50:14;;;;;;;16.30;11.53;;;22.40;99.90;;;;;;5018026;28;20203;-65
2022/07/01 01:52:43;;;;;;;16.23;11.75;;;22.40;99.90;;;;;;5017557;28;20334;-65
2022/07/01 01:55:11;;;;;;;19.43;12.50;;;22.50;99.90;;;;;;5018055;28;20212;-66
2022/07/01 01:57:38;;;;;;;17.87;12.53;;;22.50;99.90;;;;;;5035816;28;20223;-65
2022/07/01 02:00:07;;;;;;;24.57;13.73;;;22.50;99.90;;;;;;5017926;28;20290;-68
2022/07/01 02:02:36;;;;;;;19.77;12.63;;;22.60;99.90;;;;;;5017899;28;20298;-66
2022/07/01 02:05:05;;;;;;;16.17;12.13;;;22.60;99.90;;;;;;5035940;28;20212;-66
2022/07/01 02:07:32;;;;;;;17.60;12.47;;;22.60;99.90;;;;;;5035670;28;20198;-65
2022/07/01 02:10:00;;;;;;;15.67;11.97;;;22.60;99.90;;;;;;5017797;28;20218;-68
2022/07/01 02:12:27;;;;;;;24.03;12.97;;;22.70;99.90;;;;;;5017823;28;20607;-67
2022/07/01 02:14:54;;;;;;;19.17;12.13;;;22.70;99.90;;;;;;5017465;28;20199;-66
2022/07/01 02:17:21;;;;;;;16.13;12.23;;;22.70;99.90;;;;;;5017436;28;20286;-65
2022/07/01 02:19:48;;;;;;;21.45;13.23;;;22.80;99.90;;;;;;5017416;28;20203;-66
2022/07/01 02:22:15;;;;;;;18.48;12.95;;;22.80;99.90;;;;;;5017343;28;20731;-66
2022/07/01 02:24:43;;;;;;;16.30;12.23;;;22.80;99.90;;;;;;5017786;28;20230;-65
2022/07/01 02:27:12;;;;;;;16.73;12.83;;;22.80;99.90;;;;;;5017086;28;20196;-66
2022/07/01 02:29:39;;;;;;;18.77;13.07;;;22.80;99.90;;;;;;5017074;28;20200;-66
2022/07/01 02:32:06;;;;;;;26.45;12.55;;;22.80;99.90;;;;;;5017006;28;20249;-66
2022/07/01 02:34:33;;;;;;;17.97;12.50;;;22.70;99.90;;;;;;5017391;28;20235;-66
2022/07/01 02:37:00;;;;;;;20.25;12.68;;;22.70;99.90;;;;;;5017442;28;20233;-66
2022/07/01 02:39:27;;;;;;;24.52;12.65;;;22.70;99.90;;;;;;5034804;28;20206;-66
2022/07/01 02:44:39;;;;;;;16.60;12.48;;;22.60;99.90;;;;;;5016693;28;20227;-65
2022/07/01 02:47:07;;;;;;;17.17;12.00;;;22.50;99.90;;;;;;5034950;28;20541;-66
2022/07/01 02:49:33;;;;;;;16.10;12.47;;;22.50;99.90;;;;;;5034843;28;20270;-65
2022/07/01 02:52:00;;;;;;;17.47;12.23;;;22.50;99.90;;;;;;5016544;28;20254;-68
2022/07/01 02:54:27;;;;;;;15.70;11.70;;;22.60;99.90;;;;;;5016916;28;20196;-65
2022/07/01 02:56:54;;;;;;;15.85;11.98;;;22.60;99.90;;;;;;5016006;28;20310;-66
2022/07/01 02:59:21;;;;;;;15.70;12.02;;;22.60;99.90;;;;;;5016942;28;20209;-66
2022/07/01 03:01:48;;;;;;;18.40;12.07;;;22.50;99.90;;;;;;5016672;28;20545;-66
2022/07/01 03:04:15;;;;;;;27.38;14.30;;;22.50;99.90;;;;;;5016515;28;20203;-67
2022/07/01 03:06:42;;;;;;;20.00;13.67;;;22.40;99.90;;;;;;5016762;28;20629;-65
2022/07/01 03:09:09;;;;;;;16.87;12.73;;;22.40;99.90;;;;;;5034569;28;20709;-67
2022/07/01 03:11:36;;;;;;;17.50;12.17;;;22.40;99.90;;;;;;5033961;28;20592;-65
2022/07/01 03:14:03;;;;;;;23.73;13.30;;;22.40;99.90;;;;;;5034481;28;20196;-65
2022/07/01 03:16:30;;;;;;;21.03;12.57;;;22.50;99.90;;;;;;5016327;28;20278;-66
2022/07/01 03:18:57;;;;;;;16.50;12.43;;;22.60;99.90;;;;;;5033989;28;20590;-65
2022/07/01 03:21:24;;;;;;;19.43;12.63;;;22.60;99.90;;;;;;5016126;28;20195;-68
2022/07/01 03:23:51;;;;;;;20.53;13.03;;;22.60;99.90;;;;;;5016360;28;20188;-68
2022/07/01 03:26:18;;;;;;;16.87;12.07;;;22.60;99.90;;;;;;5015902;28;20680;-68
2022/07/01 03:28:44;;;;;;;16.60;12.43;;;22.60;99.90;;;;;;5016169;28;20361;-68
2022/07/01 03:31:11;;;;;;;21.57;12.53;;;22.60;99.90;;;;;;5033774;28;20196;-69
2022/07/01 03:33:38;;;;;;;18.47;12.53;;;22.70;99.90;;;;;;5015902;28;20203;-69
2022/07/01 03:36:05;;;;;;;19.30;12.90;;;22.80;99.90;;;;;;5033800;28;20235;-66
2022/07/01 03:38:32;;;;;;;16.70;12.52;;;22.80;99.90;;;;;;5015658;28;20210;-66
2022/07/01 03:40:59;;;;;;;20.73;13.90;;;22.80;99.90;;;;;;5015856;28;20218;-67
2022/07/01 03:43:26;;;;;;;18.67;13.33;;;22.80;99.90;;;;;;5015827;28;20286;-65
2022/07/01 03:45:53;;;;;;;18.33;13.03;;;22.80;99.90;;;;;;5015473;28;20771;-68
2022/07/01 03:48:20;;;;;;;18.15;13.88;;;22.90;99.90;;;;;;5015956;28;20195;-70
2022/07/01 03:50:47;;;;;;;20.70;13.63;;;22.90;99.90;;;;;;5015967;28;20203;-68
2022/07/01 03:55:59;;;;;;;23.33;14.02;;;23.10;99.90;;;;;;5015508;28;20314;-69
2022/07/01 03:58:26;;;;;;;20.83;14.83;;;23.10;99.90;;;;;;5015851;28;20203;-67
2022/07/01 04:00:53;;;;;;;19.42;15.70;;;23.10;99.90;;;;;;5033571;28;20286;-67
2022/07/01 04:03:20;;;;;;;20.73;15.10;;;23.20;99.90;;;;;;5033471;28;20233;-68
2022/07/01 04:05:47;;;;;;;21.60;14.80;;;23.30;99.90;;;;;;5015826;28;20231;-65
2022/07/01 04:08:14;;;;;;;21.15;14.70;;;23.40;99.90;;;;;;5014648;28;20204;-68
2022/07/01 04:10:41;;;;;;;18.00;14.65;;;23.40;99.90;;;;;;5015490;28;20299;-66
2022/07/01 04:13:08;;;;;;;21.67;15.90;;;23.40;99.90;;;;;;5033053;28;20599;-66
2022/07/01 04:15:55;;;;;;;21.48;15.45;;;23.50;99.90;;;;;;5033075;28;20195;-67
2022/07/01 04:18:23;;;;;;;23.25;16.15;;;23.60;99.90;;;;;;5015371;28;20222;-67
2022/07/01 04:23:35;;;;;;;24.65;16.30;;;23.60;99.90;;;;;;5015119;28;20261;-67
2022/07/01 04:26:03;;;;;;;19.53;15.60;;;23.70;99.90;;;;;;5015119;28;20273;-65
2022/07/01 04:28:54;;;;;;;18.75;14.85;;;23.80;99.90;;;;;;5015263;28;20578;-65
2022/07/01 04:31:21;;;;;;;20.63;15.87;;;23.90;99.90;;;;;;5015338;28;20237;-67
2022/07/01 04:33:48;;;;;;;18.75;15.52;;;23.90;99.90;;;;;;5014880;28;20664;-67
2022/07/01 04:36:16;;;;;;;20.20;16.03;;;24.00;99.90;;;;;;5032985;28;20593;-69
2022/07/01 04:38:43;;;;;;;27.35;16.65;;;24.10;99.90;;;;;;5015147;28;20275;-66
2022/07/01 04:43:55;;;;;;;19.63;15.93;;;24.10;99.90;;;;;;5032865;28;20261;-68
2022/07/01 04:46:22;;;;;;;20.80;16.85;;;24.20;99.90;;;;;;5015031;28;20242;-68
2022/07/01 04:48:49;;;;;;;23.77;16.52;;;24.20;99.90;;;;;;5014964;28;20646;-68
2022/07/01 04:51:16;;;;;;;20.08;16.23;;;24.30;99.90;;;;;;5032729;28;20215;-67
2022/07/01 04:53:43;;;;;;;22.08;15.98;;;24.30;99.90;;;;;;5032471;28;20242;-68
2022/07/01 04:56:10;;;;;;;20.73;15.98;;;24.40;99.90;;;;;;5032633;28;20245;-69
2022/07/01 04:58:37;;;;;;;21.83;16.75;;;24.50;99.90;;;;;;5015018;28;20215;-66
2022/07/01 05:01:03;;;;;;;26.83;16.60;;;24.50;99.90;;;;;;5014588;28;20202;-68
2022/07/01 05:03:30;;;;;;;21.60;15.70;;;24.60;99.90;;;;;;5015008;28;20586;-66
2022/07/01 05:05:58;;;;;;;22.08;16.45;;;24.70;99.90;;;;;;5014697;28;20314;-66
2022/07/01 05:08:25;;;;;;;23.90;17.63;;;24.70;99.90;;;;;;5014625;28;20204;-64
2022/07/01 05:10:51;;;;;;;22.50;16.45;;;24.80;99.90;;;;;;5015089;28;20706;-67
2022/07/01 05:13:18;;;;;;;23.10;16.20;;;24.80;99.90;;;;;;5014752;28;20294;-66
2022/07/01 05:15:45;;;;;;;20.08;16.55;;;24.80;99.90;;;;;;5032322;28;20187;-68
2022/07/01 05:23:43;;;;;;;21.20;16.77;;;24.80;99.90;;;;;;5018202;28;20215;-64
2022/07/01 05:26:15;;;;;;;20.70;17.25;;;24.90;99.90;;;;;;5018115;28;20246;-66
2022/07/01 05:28:43;;;;;;;20.02;17.00;;;25.00;99.90;;;;;;5018342;28;20298;-68
2022/07/01 05:31:14;;;;;;;23.13;16.67;;;25.10;99.90;;;;;;5018598;28;20196;-67
2022/07/01 05:33:41;;;;;;;20.40;16.92;;;25.10;99.90;;;;;;5018131;28;20199;-67
2022/07/01 05:36:09;;;;;;;22.13;17.35;;;25.20;99.90;;;;;;5018614;28;20195;-73
2022/07/01 05:38:36;;;;;;;22.10;16.50;;;25.20;99.90;;;;;;5035741;28;20545;-75
2022/07/01 05:41:03;;;;;;;25.05;17.00;;;25.20;99.90;;;;;;5017944;28;20212;-76
2022/07/01 05:43:30;;;;;;;20.08;16.55;;;25.20;99.90;;;;;;5001674;28;20253;-77
2022/07/01 05:45:57;;;;;;;33.30;18.02;;;25.20;99.90;;;;;;5017880;28;20263;-76
2022/07/01 05:48:25;;;;;;;21.25;17.25;;;25.40;99.90;;;;;;5018028;28;20220;-76
2022/07/01 05:50:52;;;;;;;20.90;16.48;;;25.40;99.90;;;;;;5018186;28;20192;-75
2022/07/01 05:53:19;;;;;;;22.00;16.40;;;25.50;99.90;;;;;;5018114;28;20191;-76
2022/07/01 05:55:46;;;;;;;24.90;17.40;;;25.60;99.90;;;;;;5035811;28;20210;-75
2022/07/01 05:58:14;;;;;;;22.92;17.65;;;25.60;99.90;;;;;;5017799;28;20665;-75
2022/07/01 06:00:42;;;;;;;20.35;17.05;;;25.80;99.90;;;;;;5017622;28;20298;-75
2022/07/01 06:03:10;;;;;;;20.90;17.50;;;25.80;99.90;;;;;;5017612;28;20251;-75
2022/07/01 06:05:40;;;;;;;26.75;17.23;;;25.90;99.90;;;;;;5035486;28;20206;-75
2022/07/01 06:08:07;;;;;;;24.33;17.08;;;26.00;99.90;;;;;;5035148;28;20219;-75
2022/07/01 06:10:35;;;;;;;23.02;17.27;;;26.10;99.90;;;;;;5017461;28;20250;-77
2022/07/01 06:13:03;;;;;;;21.77;16.80;;;26.20;99.90;;;;;;5017157;28;20238;-78
2022/07/01 06:15:30;;;;;;;21.90;16.75;;;26.40;99.90;;;;;;5017427;28;20195;-75
2022/07/01 06:17:57;;;;;;;23.92;17.05;;;26.40;99.90;;;;;;5035264;28;20191;-74
2022/07/01 06:20:24;;;;;;;21.10;16.55;;;26.40;99.90;;;;;;5017711;28;20211;-79
2022/07/01 06:22:52;;;;;;;23.27;16.42;;;26.50;99.90;;;;;;5017160;28;20226;-75
2022/07/01 06:25:19;;;;;;;18.80;16.30;;;26.60;99.90;;;;;;5017390;28;20191;-76
2022/07/01 06:27:45;;;;;;;21.05;16.58;;;26.70;99.90;;;;;;5034829;28;20237;-76
2022/07/01 06:30:13;;;;;;;18.05;15.70;;;26.90;99.90;;;;;;5017121;28;20191;-78
2022/07/01 06:32:40;;;;;;;20.52;15.60;;;27.00;99.90;;;;;;5016711;28;20246;-77
2022/07/01 06:35:08;;;;;;;20.23;15.80;;;27.10;99.90;;;;;;5017514;28;20199;-76
2022/07/01 06:37:35;;;;;;;23.65;17.27;;;27.20;99.90;;;;;;5016902;28;20227;-76
2022/07/01 06:40:04;;;;;;;19.95;16.70;;;27.20;99.90;;;;;;5001007;28;20605;-76
2022/07/01 06:42:33;;;;;;;27.88;18.05;;;27.30;99.90;;;;;;5017043;28;20286;-76
2022/07/01 06:45:01;;;;;;;21.15;16.52;;;27.40;99.90;;;;;;5016554;28;20314;-76
2022/07/01 06:47:28;;;;;;;26.88;17.70;;;27.50;99.90;;;;;;5016894;28;20310;-75
2022/07/01 06:49:55;;;;;;;24.80;16.90;;;27.60;99.90;;;;;;5017102;28;20227;-79
2022/07/01 06:52:27;;;;;;;22.15;16.80;;;27.70;99.90;;;;;;5016490;28;20195;-75
2022/07/01 06:54:54;;;;;;;23.15;16.98;;;27.70;99.90;;;;;;5016820;28;20298;-75
2022/07/01 06:57:21;;;;;;;25.48;17.85;;;27.70;99.90;;;;;;5016800;28;20225;-78
2022/07/01 06:59:49;;;;;;;21.75;16.75;;;27.80;99.90;;;;;;5016853;28;20214;-80
2022/07/01 07:02:16;;;;;;;24.90;17.13;;;27.90;99.90;;;;;;5034297;28;20180;-79
2022/07/01 07:04:43;;;;;;;25.58;17.15;;;27.90;99.90;;;;;;5016658;28;20672;-81
2022/07/01 07:07:25;;;;;;;29.05;17.15;;;28.10;99.90;;;;;;5034400;28;20716;-81
2022/07/01 07:09:52;;;;;;;30.48;17.65;;;28.20;99.90;;;;;;5016406;28;20310;-80
2022/07/01 07:12:19;;;;;;;25.45;16.92;;;28.30;99.90;;;;;;5016271;28;20235;-82
2022/07/01 07:14:46;;;;;;;27.30;17.25;;;28.50;99.90;;;;;;5034506;28;20274;-81
2022/07/01 07:17:13;;;;;;;29.40;17.98;;;28.60;99.90;;;;;;5016607;28;20211;-83
2022/07/01 07:19:40;;;;;;;22.52;15.95;;;28.60;99.90;;;;;;4999797;28;20658;-73
2022/07/01 07:22:07;;;;;;;22.17;16.60;;;28.70;99.90;;;;;;5016295;28;20570;-73
2022/07/01 07:24:34;;;;;;;23.40;16.63;;;28.80;99.90;;;;;;5016547;28;20298;-74
2022/07/01 07:27:01;;;;;;;20.88;16.63;;;28.90;99.90;;;;;;5015929;28;20247;-77
2022/07/01 07:29:29;;;;;;;21.23;16.45;;;29.00;99.90;;;;;;5016189;28;20199;-80
2022/07/01 07:31:56;;;;;;;21.88;16.50;;;29.10;99.90;;;;;;5033665;28;20196;-80
2022/07/01 07:34:23;;;;;;;21.13;16.05;;;29.10;99.90;;;;;;5016074;28;20195;-84
2022/07/01 07:36:50;;;;;;;22.52;16.27;;;29.30;99.90;;;;;;5016175;28;20204;-83
2022/07/01 07:39:17;;;;;;;22.98;16.35;;;29.40;99.90;;;;;;5016324;28;20294;-82
2022/07/01 07:41:44;;;;;;;19.92;15.70;;;29.50;99.90;;;;;;5017110;28;20261;-78
2022/07/01 07:44:12;;;;;;;24.95;15.73;;;29.70;99.90;;;;;;5034605;28;20231;-86
2022/07/01 07:46:39;;;;;;;24.73;15.30;;;29.80;99.90;;;;;;5015880;28;20761;-79
2022/07/01 07:49:06;;;;;;;21.75;14.80;;;29.80;99.90;;;;;;5015806;28;20679;-73
2022/07/01 07:51:33;;;;;;;20.60;15.20;;;29.90;99.90;;;;;;5033571;28;20238;-79
2022/07/01 07:54:02;;;;;;;21.05;15.38;;;30.00;99.90;;;;;;5017458;28;20227;-83
2022/07/01 07:56:31;;;;;;;18.80;14.45;;;30.10;99.90;;;;;;5013793;28;20253;-83
2022/07/01 07:59:01;;;;;;;19.60;15.15;;;30.30;99.90;;;;;;5015639;28;20211;-84
2022/07/01 08:01:28;;;;;;;22.80;14.32;;;30.40;99.90;;;;;;4999860;28;20552;-82
2022/07/01 08:03:55;;;;;;;17.35;14.02;;;30.60;99.90;;;;;;5015841;28;20253;-83
2022/07/01 08:06:25;;;;;;;17.45;13.75;;;30.70;99.90;;;;;;5033988;28;20230;-84
2022/07/01 08:08:52;;;;;;;23.40;14.13;;;30.70;99.90;;;;;;5015776;28;20635;-83
2022/07/01 08:11:20;;;;;;;16.30;13.80;;;30.80;99.90;;;;;;5015925;28;20290;-83
2022/07/01 08:13:47;;;;;;;19.27;13.48;;;30.80;99.90;;;;;;5034461;28;20199;-83
2022/07/01 08:16:16;;;;;;;16.45;13.15;;;31.00;99.90;;;;;;5000063;28;20587;-83
2022/07/01 08:18:43;;;;;;;16.25;13.25;;;31.10;99.90;;;;;;5015768;28;20203;-84
2022/07/01 08:21:10;;;;;;;17.73;12.35;;;31.20;99.90;;;;;;5016144;28;20196;-84
2022/07/01 08:23:37;;;;;;;14.05;11.80;;;31.30;99.90;;;;;;5015344;28;20632;-83
2022/07/01 08:26:04;;;;;;;15.70;12.45;;;31.30;99.90;;;;;;5016239;28;20321;-85
2022/07/01 08:28:31;;;;;;;14.40;11.43;;;31.70;99.90;;;;;;5015377;28;20575;-83
2022/07/01 08:31:07;;;;;;;14.85;11.43;;;32.50;99.90;;;;;;4982769;28;20273;-83
2022/07/01 08:33:34;;;;;;;16.88;11.15;;;33.10;99.90;;;;;;5032821;28;20237;-83
2022/07/01 08:36:05;;;;;;;19.35;10.73;;;33.60;99.90;;;;;;5033150;28;20195;-83
2022/07/01 08:38:32;;;;;;;14.00;10.65;;;33.90;99.90;;;;;;5015469;28;20199;-84
2022/07/01 08:41:01;;;;;;;14.50;9.73;;;34.30;99.90;;;;;;5015187;28;20203;-84
2022/07/01 08:43:28;;;;;;;13.85;10.32;;;34.40;99.90;;;;;;5111462;22;20217;-85
2022/07/01 08:45:57;;;;;;;12.57;9.95;;;34.40;99.90;;;;;;5054680;28;20704;-84
2022/07/01 08:48:34;;;;;;;10.93;9.82;;;34.70;99.90;;;;;;5062156;28;20228;-84
2022/07/01 08:51:03;;;;;;;13.60;9.57;;;35.30;99.10;;;;;;5054833;28;20222;-88
2022/07/01 08:53:31;;;;;;;12.10;9.38;;;35.60;96.80;;;;;;5054910;28;20194;-85
2022/07/01 08:58:47;;;;;;;15.38;9.55;;;36.00;94.20;;;;;;5059178;28;20205;-84
2022/07/01 09:01:25;;;;;;;10.30;9.23;;;35.90;93.80;;;;;;5058939;28;20224;-86
2022/07/01 09:04:23;;;;;;;23.10;10.02;;;36.10;91.50;;;;;;5029564;23;20603;-81
2022/07/01 09:07:12;;;;;;;14.35;9.40;;;36.00;89.60;;;;;;5036598;28;20229;-86
2022/07/01 09:15:31;;;;;;;10.05;8.95;;;36.40;86.30;;;;;;5021533;28;20269;-86
2022/07/01 09:18:06;;;;;;;11.13;8.95;;;36.20;83.60;;;;;;5023660;28;20329;-87
2022/07/01 09:20:37;;;;;;;11.10;9.55;;;36.10;84.00;;;;;;5018357;28;20220;-87
2022/07/01 09:23:06;;;;;;;9.90;8.90;;;36.30;84.30;;;;;;5026108;28;20196;-88
2022/07/01 09:25:39;;;;;;;13.45;9.63;;;36.40;82.80;;;;;;5019339;28;20528;-88
2022/07/01 09:28:23;;;;;;;10.02;9.07;;;36.60;82.50;;;;;;5019723;28;20223;-84
2022/07/01 09:30:57;;;;;;;10.02;8.70;;;36.60;82.40;;;;;;5022521;28;20201;-87
2022/07/01 09:33:42;;;;;;;12.02;9.18;;;36.90;80.30;;;;;;5026430;28;20561;-87
2022/07/01 09:36:15;;;;;;;11.57;9.52;;;37.00;77.50;;;;;;5000175;28;20192;-87
2022/07/01 09:38:47;;;;;;;12.30;9.35;;;36.80;77.20;;;;;;5017502;28;20207;-78
2022/07/01 09:41:14;;;;;;;13.15;9.77;;;36.70;80.20;;;;;;5015638;28;20214;-83
2022/07/01 09:44:16;;;;;;;15.00;9.68;;;36.80;78.40;;;;;;5015714;28;20295;-89
2022/07/01 09:46:56;;;;;;;16.20;9.27;;;36.80;76.60;;;;;;5006756;23;20262;-82
2022/07/01 09:49:24;;;;;;;15.80;9.77;;;36.70;76.30;;;;;;5038943;28;20186;-91
2022/07/01 09:51:51;;;;;;;10.98;9.45;;;36.70;75.80;;;;;;5038485;28;20212;-76
2022/07/01 09:54:19;;;;;;;12.85;9.63;;;36.70;75.70;;;;;;5037943;28;20195;-83
2022/07/01 09:56:46;;;;;;;10.00;9.00;;;37.00;76.50;;;;;;5037303;28;20233;-77
2022/07/01 09:59:17;;;;;;;9.93;9.00;;;37.30;74.10;;;;;;5056034;28;20203;-78
2022/07/01 10:01:46;;;;;;;11.50;9.32;;;37.20;73.90;;;;;;5038513;28;20203;-80
2022/07/01 10:04:16;;;;;;;12.55;8.75;;;37.30;73.30;;;;;;5038514;28;20682;-83
2022/07/01 10:06:58;;;;;;;10.05;8.85;;;37.20;72.30;;;;;;5055044;28;20210;-85
2022/07/01 10:10:16;;;;;;;19.80;9.00;;;37.50;70.60;;;;;;5038937;28;20248;-80
2022/07/01 10:12:50;;;;;;;13.07;9.65;;;37.70;71.00;;;;;;4958934;28;20315;-87
2022/07/01 10:15:19;;;;;;;11.20;9.15;;;37.50;71.10;;;;;;4959400;28;20689;-79
2022/07/01 10:17:50;;;;;;;13.93;9.18;;;37.70;71.50;;;;;;4974712;28;20209;-72
2022/07/01 10:20:26;;;;;;;10.35;8.80;;;38.20;69.70;;;;;;4958441;28;20268;-74
2022/07/01 10:23:04;;;;;;;12.45;8.55;;;38.30;69.40;;;;;;4974379;28;20670;-73
2022/07/01 10:25:41;;;;;;;14.05;8.73;;;38.30;67.60;;;;;;4974356;28;20193;-85
2022/07/01 10:28:22;;;;;;;12.88;8.70;;;38.10;66.10;;;;;;4974340;28;20232;-80
2022/07/01 10:31:05;;;;;;;9.30;8.05;;;37.90;67.40;;;;;;4974379;28;20201;-88
2022/07/01 10:33:40;;;;;;;10.93;8.00;;;38.10;66.00;;;;;;4974167;28;20208;-86
2022/07/01 10:36:17;;;;;;;10.55;7.68;;;38.40;65.90;;;;;;4974607;28;20208;-74
2022/07/01 10:39:06;;;;;;;8.75;7.85;;;38.70;64.40;;;;;;4975500;28;20655;-76
2022/07/01 10:41:35;;;;;;;11.40;7.80;;;38.80;63.90;;;;;;4974282;28;20606;-84
2022/07/01 10:44:05;;;;;;;9.38;7.30;;;39.10;62.50;;;;;;4974443;28;20301;-75
2022/07/01 10:46:49;;;;;;;8.98;7.40;;;39.20;61.00;;;;;;4947776;29;20704;-91
2022/07/01 10:49:18;;;;;;;11.32;7.85;;;39.30;59.20;;;;;;5019091;28;20196;-84
2022/07/01 10:51:49;;;;;;;10.45;8.02;;;39.70;59.00;;;;;;5035260;28;20218;-75
2022/07/01 10:54:40;;;;;;;8.90;7.75;;;39.70;58.10;;;;;;5017258;28;20295;-85
2022/07/01 10:57:22;;;;;;;8.00;7.07;;;40.00;57.40;;;;;;5017522;28;20219;-84
2022/07/01 11:00:00;;;;;;;10.20;7.10;;;39.80;57.40;;;;;;5035142;28;20241;-84
2022/07/01 11:02:28;;;;;;;9.32;7.30;;;39.40;57.10;;;;;;5017779;28;20210;-79
2022/07/01 11:05:09;;;;;;;9.90;7.22;;;39.60;56.90;;;;;;5017235;28;20191;-81
2022/07/01 11:07:38;;;;;;;7.80;7.00;;;39.70;56.60;;;;;;5034686;28;20239;-84
2022/07/01 11:10:07;;;;;;;8.95;7.00;;;40.00;55.90;;;;;;5034653;28;20187;-81
2022/07/01 11:12:34;;;;;;;9.55;7.85;;;40.20;55.40;;;;;;5033567;28;20557;-73
2022/07/01 11:15:05;;;;;;;9.20;7.57;;;40.50;56.00;;;;;;5016620;28;20334;-85
2022/07/01 11:17:34;;;;;;;15.23;8.18;;;40.20;55.20;;;;;;5016190;28;20196;-75
2022/07/01 11:20:02;;;;;;;11.88;7.38;;;40.00;55.30;;;;;;5034380;28;20200;-74
2022/07/01 11:22:32;;;;;;;8.90;7.10;;;40.30;56.20;;;;;;5035303;28;20199;-80
2022/07/01 11:25:01;;;;;;;8.98;7.60;;;40.40;54.80;;;;;;5018056;28;20262;-76
2022/07/01 11:27:29;;;;;;;8.35;7.00;;;40.60;53.60;;;;;;5017377;28;20298;-74
2022/07/01 11:30:00;;;;;;;9.73;6.88;;;40.80;53.50;;;;;;5036997;28;20203;-74
2022/07/01 11:32:29;;;;;;;9.10;7.15;;;40.70;52.80;;;;;;5018596;28;20253;-80
2022/07/01 11:35:00;;;;;;;8.30;7.40;;;40.80;53.00;;;;;;5017665;28;20202;-80
2022/07/01 11:40:18;;;;;;;7.90;6.68;;;41.40;52.50;;;;;;5034372;28;20238;-87
2022/07/01 11:42:45;;;;;;;8.68;6.90;;;41.30;50.50;;;;;;5034599;28;20191;-92
2022/07/01 11:45:26;;;;;;;8.73;7.30;;;41.40;50.70;;;;;;5016426;28;20763;-89
2022/07/01 11:47:54;;;;;;;11.95;7.63;;;41.30;51.00;;;;;;5016536;28;20277;-86
2022/07/01 11:50:21;;;;;;;8.68;7.03;;;41.10;51.40;;;;;;5017700;28;20290;-79
2022/07/01 11:52:48;;;;;;;8.95;7.30;;;41.10;51.50;;;;;;5034083;28;20671;-83
2022/07/01 11:55:19;;;;;;;7.90;7.10;;;41.60;52.00;;;;;;5017245;28;20195;-83
2022/07/01 11:58:05;;;;;;;8.00;7.07;;;41.80;50.70;;;;;;5016528;28;20191;-82
2022/07/01 12:00:34;;;;;;;7.60;6.88;;;42.00;50.50;;;;;;5012829;28;20223;-86
2022/07/01 12:03:01;;;;;;;9.70;6.85;;;42.50;49.50;;;;;;4976755;28;20201;-85
2022/07/01 12:05:28;;;;;;;9.48;7.07;;;42.50;49.40;;;;;;4976633;28;20204;-89
2022/07/01 12:08:01;;;;;;;9.60;6.93;;;42.80;48.80;;;;;;4977707;28;20647;-84
2022/07/01 12:10:28;;;;;;;8.02;6.50;;;42.80;48.30;;;;;;4976074;28;20209;-74
2022/07/01 12:12:55;;;;;;;9.35;6.10;;;42.40;47.80;;;;;;4993619;28;20192;-76
2022/07/01 12:15:23;;;;;;;7.85;6.10;;;42.50;47.60;;;;;;4976285;28;20204;-76
2022/07/01 12:17:50;;;;;;;7.57;6.38;;;42.50;46.80;;;;;;4976348;28;20193;-77
2022/07/01 12:20:31;;;;;;;8.23;6.38;;;42.50;47.30;;;;;;4993748;28;20622;-76
2022/07/01 12:23:13;;;;;;;7.47;6.30;;;42.00;47.80;;;;;;4993826;28;20292;-76
2022/07/01 12:25:50;;;;;;;7.95;6.50;;;42.20;47.50;;;;;;4976132;28;20224;-85
2022/07/01 12:28:53;;;;;;;10.70;7.07;;;42.20;47.90;;;;;;4982107;28;20229;-96
2022/07/01 12:31:22;;;;;;;8.23;6.20;;;42.60;47.10;;;;;;4885436;29;20286;-90
2022/07/01 12:33:51;;;;;;;8.57;6.47;;;42.90;46.80;;;;;;4901036;29;20209;-88
2022/07/01 12:36:18;;;;;;;10.55;6.55;;;42.80;45.90;;;;;;4906013;29;20637;-81
2022/07/01 12:38:45;;;;;;;7.43;6.15;;;43.00;45.30;;;;;;4905935;29;20608;-85
2022/07/01 12:41:38;;;;;;;9.02;6.32;;;42.60;45.60;;;;;;4898936;29;20318;-77
2022/07/01 12:44:20;;;;;;;8.35;6.32;;;42.50;45.80;;;;;;4914915;29;20202;-79
2022/07/01 12:46:47;;;;;;;10.77;6.30;;;42.60;45.50;;;;;;4910254;29;20690;-78
2022/07/01 12:49:34;;;;;;;11.75;5.93;;;43.10;45.30;;;;;;4918002;29;20369;-79
2022/07/01 12:52:02;;;;;;;9.55;6.75;;;43.00;43.80;;;;;;4917796;29;20203;-78
2022/07/01 12:54:38;;;;;;;8.25;6.15;;;42.70;44.50;;;;;;4902752;29;20210;-78
2022/07/01 12:57:05;;;;;;;12.10;6.45;;;42.50;44.50;;;;;;4933486;29;20208;-79
2022/07/01 12:59:32;;;;;;;11.00;6.40;;;42.80;44.40;;;;;;4917819;29;20207;-76
2022/07/01 13:02:01;;;;;;;8.77;6.55;;;43.10;44.20;;;;;;4917597;29;20585;-84
2022/07/01 13:04:29;;;;;;;8.50;5.85;;;42.70;44.30;;;;;;4918284;29;20207;-77
2022/07/01 13:06:57;;;;;;;8.77;6.40;;;42.90;44.40;;;;;;4948719;28;20204;-79
2022/07/01 13:09:24;;;;;;;10.63;6.47;;;42.80;43.70;;;;;;5011762;28;20314;-80
2022/07/01 13:12:09;;;;;;;8.95;5.95;;;42.60;43.90;;;;;;5013214;28;20192;-81
2022/07/01 13:14:38;;;;;;;10.13;6.00;;;42.80;44.50;;;;;;4995418;28;20665;-80